sensor_id;sensor_type;location;lat;lon;timestamp;temperature;humidity
85097;SHT30;75436;53.502;10.030;2024-02-04T00:00:27;6.64;81.81
85097;SHT30;75436;53.502;10.030;2024-02-04T00:02:53;6.53;82.26
85097;SHT30;75436;53.502;10.030;2024-02-04T00:05:19;6.54;82.44
85097;SHT30;75436;53.502;10.030;2024-02-04T00:07:45;6.51;82.49
85097;SHT30;75436;53.502;10.030;2024-02-04T00:10:11;6.53;82.33
85097;SHT30;75436;53.502;10.030;2024-02-04T00:12:37;6.53;82.14
85097;SHT30;75436;53.502;10.030;2024-02-04T00:15:03;6.44;82.47
85097;SHT30;75436;53.502;10.030;2024-02-04T00:17:31;6.46;82.53
85097;SHT30;75436;53.502;10.030;2024-02-04T00:20:00;6.36;82.95
85097;SHT30;75436;53.502;10.030;2024-02-04T00:22:27;6.33;83.05
85097;SHT30;75436;53.502;10.030;2024-02-04T00:24:53;6.41;83.04
85097;SHT30;75436;53.502;10.030;2024-02-04T00:27:19;6.34;83.05
85097;SHT30;75436;53.502;10.030;2024-02-04T00:29:45;6.32;83.63
85097;SHT30;75436;53.502;10.030;2024-02-04T00:32:10;6.22;84.04
85097;SHT30;75436;53.502;10.030;2024-02-04T00:34:36;6.26;83.94
85097;SHT30;75436;53.502;10.030;2024-02-04T00:37:01;6.22;83.89
85097;SHT30;75436;53.502;10.030;2024-02-04T00:39:28;6.23;84.45
85097;SHT30;75436;53.502;10.030;2024-02-04T00:41:53;6.25;84.25
85097;SHT30;75436;53.502;10.030;2024-02-04T00:44:18;6.19;84.63
85097;SHT30;75436;53.502;10.030;2024-02-04T00:46:44;6.41;84.17
85097;SHT30;75436;53.502;10.030;2024-02-04T00:49:09;6.29;84.15
85097;SHT30;75436;53.502;10.030;2024-02-04T00:51:35;6.12;84.66
85097;SHT30;75436;53.502;10.030;2024-02-04T00:54:00;6.12;84.78
85097;SHT30;75436;53.502;10.030;2024-02-04T00:56:26;6.13;84.78
85097;SHT30;75436;53.502;10.030;2024-02-04T00:58:51;5.99;85.18
85097;SHT30;75436;53.502;10.030;2024-02-04T01:01:17;6.07;85.13
85097;SHT30;75436;53.502;10.030;2024-02-04T01:03:43;6.01;85.19
85097;SHT30;75436;53.502;10.030;2024-02-04T01:06:08;6.09;84.95
85097;SHT30;75436;53.502;10.030;2024-02-04T01:08:34;6.02;85.16
85097;SHT30;75436;53.502;10.030;2024-02-04T01:11:03;6.09;85.14
85097;SHT30;75436;53.502;10.030;2024-02-04T01:13:28;6.27;84.17
85097;SHT30;75436;53.502;10.030;2024-02-04T01:15:53;6.29;84.24
85097;SHT30;75436;53.502;10.030;2024-02-04T01:18:19;6.32;84.01
85097;SHT30;75436;53.502;10.030;2024-02-04T01:20:45;6.44;83.56
85097;SHT30;75436;53.502;10.030;2024-02-04T01:23:11;6.57;83.18
85097;SHT30;75436;53.502;10.030;2024-02-04T01:25:38;6.58;83.23
85097;SHT30;75436;53.502;10.030;2024-02-04T01:28:05;6.46;83.55
85097;SHT30;75436;53.502;10.030;2024-02-04T01:30:31;6.61;82.88
85097;SHT30;75436;53.502;10.030;2024-02-04T01:32:57;6.54;83.48
85097;SHT30;75436;53.502;10.030;2024-02-04T01:35:22;6.58;83.41
85097;SHT30;75436;53.502;10.030;2024-02-04T01:37:47;6.67;82.73
85097;SHT30;75436;53.502;10.030;2024-02-04T01:40:16;6.60;83.04
85097;SHT30;75436;53.502;10.030;2024-02-04T01:42:41;6.65;83.02
85097;SHT30;75436;53.502;10.030;2024-02-04T01:45:07;6.65;83.01
85097;SHT30;75436;53.502;10.030;2024-02-04T01:47:32;6.70;82.64
85097;SHT30;75436;53.502;10.030;2024-02-04T01:49:59;6.70;82.72
85097;SHT30;75436;53.502;10.030;2024-02-04T01:52:25;6.85;82.18
85097;SHT30;75436;53.502;10.030;2024-02-04T01:54:52;6.78;82.52
85097;SHT30;75436;53.502;10.030;2024-02-04T01:57:19;6.84;82.41
85097;SHT30;75436;53.502;10.030;2024-02-04T01:59:45;6.77;82.47
85097;SHT30;75436;53.502;10.030;2024-02-04T02:02:11;6.92;82.15
85097;SHT30;75436;53.502;10.030;2024-02-04T02:04:36;6.94;81.84
85097;SHT30;75436;53.502;10.030;2024-02-04T02:07:04;6.98;82.10
85097;SHT30;75436;53.502;10.030;2024-02-04T02:09:29;6.92;82.02
85097;SHT30;75436;53.502;10.030;2024-02-04T02:12:14;6.92;81.88
85097;SHT30;75436;53.502;10.030;2024-02-04T02:14:48;6.94;81.91
85097;SHT30;75436;53.502;10.030;2024-02-04T02:17:19;6.89;82.21
85097;SHT30;75436;53.502;10.030;2024-02-04T02:20:01;6.96;81.93
85097;SHT30;75436;53.502;10.030;2024-02-04T02:22:57;6.94;81.95
85097;SHT30;75436;53.502;10.030;2024-02-04T02:25:27;7.04;81.76
85097;SHT30;75436;53.502;10.030;2024-02-04T02:27:52;6.99;81.67
85097;SHT30;75436;53.502;10.030;2024-02-04T02:30:18;6.98;81.81
85097;SHT30;75436;53.502;10.030;2024-02-04T02:32:45;7.04;81.55
85097;SHT30;75436;53.502;10.030;2024-02-04T02:35:15;6.95;82.04
85097;SHT30;75436;53.502;10.030;2024-02-04T02:38:12;6.91;82.13
85097;SHT30;75436;53.502;10.030;2024-02-04T02:40:47;6.94;81.92
85097;SHT30;75436;53.502;10.030;2024-02-04T02:43:15;6.88;81.95
85097;SHT30;75436;53.502;10.030;2024-02-04T02:45:42;6.92;81.80
85097;SHT30;75436;53.502;10.030;2024-02-04T02:48:09;6.78;82.30
85097;SHT30;75436;53.502;10.030;2024-02-04T02:50:36;6.83;81.99
85097;SHT30;75436;53.502;10.030;2024-02-04T02:53:01;6.78;82.17
85097;SHT30;75436;53.502;10.030;2024-02-04T02:55:27;6.83;81.84
85097;SHT30;75436;53.502;10.030;2024-02-04T02:57:52;6.71;82.26
85097;SHT30;75436;53.502;10.030;2024-02-04T03:00:18;6.73;82.03
85097;SHT30;75436;53.502;10.030;2024-02-04T03:02:44;6.67;82.34
85097;SHT30;75436;53.502;10.030;2024-02-04T03:05:09;6.57;82.60
85097;SHT30;75436;53.502;10.030;2024-02-04T03:07:35;6.64;82.33
85097;SHT30;75436;53.502;10.030;2024-02-04T03:10:00;6.60;82.36
85097;SHT30;75436;53.502;10.030;2024-02-04T03:12:26;6.58;82.38
85097;SHT30;75436;53.502;10.030;2024-02-04T03:14:51;6.48;82.72
85097;SHT30;75436;53.502;10.030;2024-02-04T03:17:17;6.57;82.48
85097;SHT30;75436;53.502;10.030;2024-02-04T03:19:47;6.51;82.38
85097;SHT30;75436;53.502;10.030;2024-02-04T03:22:14;6.48;82.67
85097;SHT30;75436;53.502;10.030;2024-02-04T03:24:40;6.58;82.05
85097;SHT30;75436;53.502;10.030;2024-02-04T03:27:05;6.61;81.87
85097;SHT30;75436;53.502;10.030;2024-02-04T03:29:31;6.60;81.80
85097;SHT30;75436;53.502;10.030;2024-02-04T03:31:56;6.50;82.27
85097;SHT30;75436;53.502;10.030;2024-02-04T03:34:22;6.47;82.21
85097;SHT30;75436;53.502;10.030;2024-02-04T03:36:47;6.46;82.12
85097;SHT30;75436;53.502;10.030;2024-02-04T03:39:13;6.47;82.23
85097;SHT30;75436;53.502;10.030;2024-02-04T03:41:38;6.50;82.21
85097;SHT30;75436;53.502;10.030;2024-02-04T03:44:04;6.40;82.36
85097;SHT30;75436;53.502;10.030;2024-02-04T03:46:29;6.43;82.41
85097;SHT30;75436;53.502;10.030;2024-02-04T03:48:55;6.46;82.02
85097;SHT30;75436;53.502;10.030;2024-02-04T03:51:20;6.50;82.20
85097;SHT30;75436;53.502;10.030;2024-02-04T03:53:47;6.32;82.57
85097;SHT30;75436;53.502;10.030;2024-02-04T03:56:13;6.43;82.15
85097;SHT30;75436;53.502;10.030;2024-02-04T03:58:38;6.27;82.76
85097;SHT30;75436;53.502;10.030;2024-02-04T04:01:04;6.25;83.08
85097;SHT30;75436;53.502;10.030;2024-02-04T04:03:30;6.25;82.84
85097;SHT30;75436;53.502;10.030;2024-02-04T04:05:56;6.17;83.46
85097;SHT30;75436;53.502;10.030;2024-02-04T04:08:21;6.05;83.84
85097;SHT30;75436;53.502;10.030;2024-02-04T04:10:47;6.06;83.89
85097;SHT30;75436;53.502;10.030;2024-02-04T04:13:13;6.12;83.71
85097;SHT30;75436;53.502;10.030;2024-02-04T04:15:38;6.22;83.74
85097;SHT30;75436;53.502;10.030;2024-02-04T04:18:04;6.19;83.85
85097;SHT30;75436;53.502;10.030;2024-02-04T04:20:30;6.16;83.89
85097;SHT30;75436;53.502;10.030;2024-02-04T04:22:56;6.05;84.31
85097;SHT30;75436;53.502;10.030;2024-02-04T04:25:22;6.13;84.32
85097;SHT30;75436;53.502;10.030;2024-02-04T04:27:47;6.17;84.31
85097;SHT30;75436;53.502;10.030;2024-02-04T04:30:13;6.12;84.51
85097;SHT30;75436;53.502;10.030;2024-02-04T04:32:38;6.12;84.73
85097;SHT30;75436;53.502;10.030;2024-02-04T04:35:04;6.05;85.08
85097;SHT30;75436;53.502;10.030;2024-02-04T04:37:29;5.98;85.31
85097;SHT30;75436;53.502;10.030;2024-02-04T04:39:55;6.06;85.17
85097;SHT30;75436;53.502;10.030;2024-02-04T04:42:20;5.96;85.80
85097;SHT30;75436;53.502;10.030;2024-02-04T04:44:46;5.94;85.76
85097;SHT30;75436;53.502;10.030;2024-02-04T04:47:12;5.99;85.92
85097;SHT30;75436;53.502;10.030;2024-02-04T04:49:37;6.05;86.02
85097;SHT30;75436;53.502;10.030;2024-02-04T04:52:03;6.01;85.69
85097;SHT30;75436;53.502;10.030;2024-02-04T04:54:28;5.96;86.19
85097;SHT30;75436;53.502;10.030;2024-02-04T04:56:53;6.01;86.22
85097;SHT30;75436;53.502;10.030;2024-02-04T04:59:19;6.13;85.99
85097;SHT30;75436;53.502;10.030;2024-02-04T05:01:48;6.06;85.87
85097;SHT30;75436;53.502;10.030;2024-02-04T05:04:16;5.99;86.21
85097;SHT30;75436;53.502;10.030;2024-02-04T05:06:41;5.91;86.54
85097;SHT30;75436;53.502;10.030;2024-02-04T05:09:07;5.95;86.42
85097;SHT30;75436;53.502;10.030;2024-02-04T05:11:32;5.96;86.55
85097;SHT30;75436;53.502;10.030;2024-02-04T05:13:58;5.95;86.52
85097;SHT30;75436;53.502;10.030;2024-02-04T05:16:23;6.12;85.93
85097;SHT30;75436;53.502;10.030;2024-02-04T05:18:49;6.02;86.00
85097;SHT30;75436;53.502;10.030;2024-02-04T05:21:14;5.92;86.30
85097;SHT30;75436;53.502;10.030;2024-02-04T05:23:39;5.92;86.66
85097;SHT30;75436;53.502;10.030;2024-02-04T05:26:05;6.01;86.42
85097;SHT30;75436;53.502;10.030;2024-02-04T05:28:31;5.94;86.53
85097;SHT30;75436;53.502;10.030;2024-02-04T05:30:57;5.91;86.69
85097;SHT30;75436;53.502;10.030;2024-02-04T05:33:22;5.92;86.91
85097;SHT30;75436;53.502;10.030;2024-02-04T05:35:48;5.89;86.73
85097;SHT30;75436;53.502;10.030;2024-02-04T05:38:13;5.95;86.38
85097;SHT30;75436;53.502;10.030;2024-02-04T05:40:39;5.98;86.48
85097;SHT30;75436;53.502;10.030;2024-02-04T05:43:05;5.84;86.71
85097;SHT30;75436;53.502;10.030;2024-02-04T05:45:33;5.74;87.03
85097;SHT30;75436;53.502;10.030;2024-02-04T05:47:59;5.86;87.27
85097;SHT30;75436;53.502;10.030;2024-02-04T05:50:24;5.86;86.70
85097;SHT30;75436;53.502;10.030;2024-02-04T05:52:50;5.75;86.98
85097;SHT30;75436;53.502;10.030;2024-02-04T05:55:15;5.96;86.70
85097;SHT30;75436;53.502;10.030;2024-02-04T05:57:41;6.09;86.00
85097;SHT30;75436;53.502;10.030;2024-02-04T06:00:09;6.03;85.81
85097;SHT30;75436;53.502;10.030;2024-02-04T06:02:36;5.91;86.25
85097;SHT30;75436;53.502;10.030;2024-02-04T06:05:02;5.99;86.04
85097;SHT30;75436;53.502;10.030;2024-02-04T06:07:27;5.89;86.12
85097;SHT30;75436;53.502;10.030;2024-02-04T06:09:54;6.02;85.78
85097;SHT30;75436;53.502;10.030;2024-02-04T06:12:24;5.98;86.01
85097;SHT30;75436;53.502;10.030;2024-02-04T06:14:50;6.02;85.86
85097;SHT30;75436;53.502;10.030;2024-02-04T06:17:15;5.94;85.88
85097;SHT30;75436;53.502;10.030;2024-02-04T06:19:41;5.92;86.16
85097;SHT30;75436;53.502;10.030;2024-02-04T06:22:06;6.06;85.59
85097;SHT30;75436;53.502;10.030;2024-02-04T06:24:31;5.98;85.72
85097;SHT30;75436;53.502;10.030;2024-02-04T06:26:57;5.92;86.07
85097;SHT30;75436;53.502;10.030;2024-02-04T06:29:22;5.92;86.03
85097;SHT30;75436;53.502;10.030;2024-02-04T06:31:48;5.98;85.62
85097;SHT30;75436;53.502;10.030;2024-02-04T06:34:13;5.96;85.79
85097;SHT30;75436;53.502;10.030;2024-02-04T06:36:42;5.94;86.02
85097;SHT30;75436;53.502;10.030;2024-02-04T06:39:09;5.95;85.92
85097;SHT30;75436;53.502;10.030;2024-02-04T06:41:34;6.10;85.17
85097;SHT30;75436;53.502;10.030;2024-02-04T06:44:02;6.06;85.27
85097;SHT30;75436;53.502;10.030;2024-02-04T06:46:27;5.98;85.51
85097;SHT30;75436;53.502;10.030;2024-02-04T06:48:53;6.05;85.07
85097;SHT30;75436;53.502;10.030;2024-02-04T06:51:19;6.13;84.85
85097;SHT30;75436;53.502;10.030;2024-02-04T06:53:45;6.02;85.22
85097;SHT30;75436;53.502;10.030;2024-02-04T06:56:11;5.99;85.19
85097;SHT30;75436;53.502;10.030;2024-02-04T06:58:38;5.96;85.41
85097;SHT30;75436;53.502;10.030;2024-02-04T07:01:06;6.02;84.91
85097;SHT30;75436;53.502;10.030;2024-02-04T07:03:32;5.94;85.27
85097;SHT30;75436;53.502;10.030;2024-02-04T07:06:00;5.95;85.12
85097;SHT30;75436;53.502;10.030;2024-02-04T07:08:26;5.98;84.78
85097;SHT30;75436;53.502;10.030;2024-02-04T07:10:52;6.05;85.07
85097;SHT30;75436;53.502;10.030;2024-02-04T07:13:18;6.05;84.83
85097;SHT30;75436;53.502;10.030;2024-02-04T07:15:44;6.10;84.62
85097;SHT30;75436;53.502;10.030;2024-02-04T07:18:10;6.12;84.58
85097;SHT30;75436;53.502;10.030;2024-02-04T07:20:35;6.09;84.53
85097;SHT30;75436;53.502;10.030;2024-02-04T07:23:02;6.13;84.35
85097;SHT30;75436;53.502;10.030;2024-02-04T07:25:27;6.06;84.75
85097;SHT30;75436;53.502;10.030;2024-02-04T07:27:53;6.12;84.79
85097;SHT30;75436;53.502;10.030;2024-02-04T07:30:20;6.10;84.53
85097;SHT30;75436;53.502;10.030;2024-02-04T07:32:46;6.07;84.96
85097;SHT30;75436;53.502;10.030;2024-02-04T07:35:13;6.13;84.73
85097;SHT30;75436;53.502;10.030;2024-02-04T07:37:38;6.20;84.38
85097;SHT30;75436;53.502;10.030;2024-02-04T07:40:06;6.15;84.75
85097;SHT30;75436;53.502;10.030;2024-02-04T07:42:32;6.16;84.53
85097;SHT30;75436;53.502;10.030;2024-02-04T07:44:57;6.22;84.60
85097;SHT30;75436;53.502;10.030;2024-02-04T07:47:23;6.25;84.42
85097;SHT30;75436;53.502;10.030;2024-02-04T07:49:49;6.23;84.44
85097;SHT30;75436;53.502;10.030;2024-02-04T07:52:15;6.20;84.53
85097;SHT30;75436;53.502;10.030;2024-02-04T07:54:41;6.25;84.45
85097;SHT30;75436;53.502;10.030;2024-02-04T07:57:09;6.38;83.68
85097;SHT30;75436;53.502;10.030;2024-02-04T07:59:35;6.33;84.09
85097;SHT30;75436;53.502;10.030;2024-02-04T08:02:01;6.40;83.90
85097;SHT30;75436;53.502;10.030;2024-02-04T08:04:27;6.40;83.82
85097;SHT30;75436;53.502;10.030;2024-02-04T08:06:54;6.38;83.91
85097;SHT30;75436;53.502;10.030;2024-02-04T08:09:20;6.41;83.95
85097;SHT30;75436;53.502;10.030;2024-02-04T08:11:46;6.44;83.80
85097;SHT30;75436;53.502;10.030;2024-02-04T08:14:12;6.53;83.58
85097;SHT30;75436;53.502;10.030;2024-02-04T08:16:40;6.53;83.53
85097;SHT30;75436;53.502;10.030;2024-02-04T08:19:07;6.56;83.41
85097;SHT30;75436;53.502;10.030;2024-02-04T08:21:33;6.57;83.40
85097;SHT30;75436;53.502;10.030;2024-02-04T08:24:05;6.64;83.22
85097;SHT30;75436;53.502;10.030;2024-02-04T08:26:30;6.71;82.69
85097;SHT30;75436;53.502;10.030;2024-02-04T08:28:56;6.64;83.09
85097;SHT30;75436;53.502;10.030;2024-02-04T08:31:21;6.71;83.12
85097;SHT30;75436;53.502;10.030;2024-02-04T08:33:47;6.65;83.19
85097;SHT30;75436;53.502;10.030;2024-02-04T08:36:12;6.73;83.17
85097;SHT30;75436;53.502;10.030;2024-02-04T08:38:38;6.63;83.20
85097;SHT30;75436;53.502;10.030;2024-02-04T08:41:04;6.73;83.01
85097;SHT30;75436;53.502;10.030;2024-02-04T08:43:29;6.83;82.82
85097;SHT30;75436;53.502;10.030;2024-02-04T08:45:57;6.89;82.20
85097;SHT30;75436;53.502;10.030;2024-02-04T08:48:22;7.11;81.55
85097;SHT30;75436;53.502;10.030;2024-02-04T08:50:47;6.87;82.39
85097;SHT30;75436;53.502;10.030;2024-02-04T08:53:13;6.83;82.89
85097;SHT30;75436;53.502;10.030;2024-02-04T08:55:38;6.92;82.61
85097;SHT30;75436;53.502;10.030;2024-02-04T08:58:04;7.01;82.16
85097;SHT30;75436;53.502;10.030;2024-02-04T09:00:30;6.88;82.36
85097;SHT30;75436;53.502;10.030;2024-02-04T09:02:56;6.87;82.48
85097;SHT30;75436;53.502;10.030;2024-02-04T09:05:22;6.85;82.71
85097;SHT30;75436;53.502;10.030;2024-02-04T09:07:48;7.05;82.18
85097;SHT30;75436;53.502;10.030;2024-02-04T09:10:15;7.01;82.11
85097;SHT30;75436;53.502;10.030;2024-02-04T09:12:40;6.98;82.35
85097;SHT30;75436;53.502;10.030;2024-02-04T09:15:07;6.94;82.36
85097;SHT30;75436;53.502;10.030;2024-02-04T09:17:33;7.02;81.86
85097;SHT30;75436;53.502;10.030;2024-02-04T09:20:02;6.98;82.21
85097;SHT30;75436;53.502;10.030;2024-02-04T09:22:28;7.06;82.31
85097;SHT30;75436;53.502;10.030;2024-02-04T09:25:02;7.09;81.61
85097;SHT30;75436;53.502;10.030;2024-02-04T09:27:29;7.16;81.33
85097;SHT30;75436;53.502;10.030;2024-02-04T09:29:54;7.30;81.20
85097;SHT30;75436;53.502;10.030;2024-02-04T09:32:21;7.25;81.07
85097;SHT30;75436;53.502;10.030;2024-02-04T09:34:47;7.19;81.51
85097;SHT30;75436;53.502;10.030;2024-02-04T09:37:13;7.27;81.27
85097;SHT30;75436;53.502;10.030;2024-02-04T09:39:38;7.35;80.79
85097;SHT30;75436;53.502;10.030;2024-02-04T09:42:04;7.33;80.73
85097;SHT30;75436;53.502;10.030;2024-02-04T09:44:31;7.43;80.43
85097;SHT30;75436;53.502;10.030;2024-02-04T09:47:00;7.45;79.86
85097;SHT30;75436;53.502;10.030;2024-02-04T09:49:27;7.50;79.66
85097;SHT30;75436;53.502;10.030;2024-02-04T09:51:56;7.64;79.38
85097;SHT30;75436;53.502;10.030;2024-02-04T09:54:22;7.59;79.90
85097;SHT30;75436;53.502;10.030;2024-02-04T09:56:51;7.78;79.21
85097;SHT30;75436;53.502;10.030;2024-02-04T09:59:17;7.67;79.74
85097;SHT30;75436;53.502;10.030;2024-02-04T10:01:44;7.75;78.91
85097;SHT30;75436;53.502;10.030;2024-02-04T10:04:10;7.63;79.36
85097;SHT30;75436;53.502;10.030;2024-02-04T10:06:35;7.47;79.57
85097;SHT30;75436;53.502;10.030;2024-02-04T10:09:00;7.49;79.90
85097;SHT30;75436;53.502;10.030;2024-02-04T10:11:26;7.62;80.28
85097;SHT30;75436;53.502;10.030;2024-02-04T10:13:51;7.53;79.31
85097;SHT30;75436;53.502;10.030;2024-02-04T10:16:17;7.62;79.22
85097;SHT30;75436;53.502;10.030;2024-02-04T10:18:47;7.67;79.50
85097;SHT30;75436;53.502;10.030;2024-02-04T10:21:16;7.64;79.41
85097;SHT30;75436;53.502;10.030;2024-02-04T10:23:42;7.90;78.69
85097;SHT30;75436;53.502;10.030;2024-02-04T10:26:08;7.71;79.13
85097;SHT30;75436;53.502;10.030;2024-02-04T10:28:33;7.69;79.20
85097;SHT30;75436;53.502;10.030;2024-02-04T10:30:58;7.67;79.21
85097;SHT30;75436;53.502;10.030;2024-02-04T10:33:24;7.66;79.53
85097;SHT30;75436;53.502;10.030;2024-02-04T10:35:49;7.81;79.10
85097;SHT30;75436;53.502;10.030;2024-02-04T10:38:15;7.85;78.45
85097;SHT30;75436;53.502;10.030;2024-02-04T10:40:40;7.73;79.21
85097;SHT30;75436;53.502;10.030;2024-02-04T10:43:07;7.69;79.89
85097;SHT30;75436;53.502;10.030;2024-02-04T10:45:37;7.75;79.66
85097;SHT30;75436;53.502;10.030;2024-02-04T10:48:05;7.71;79.00
85097;SHT30;75436;53.502;10.030;2024-02-04T10:50:35;7.75;79.48
85097;SHT30;75436;53.502;10.030;2024-02-04T10:53:05;7.73;79.16
85097;SHT30;75436;53.502;10.030;2024-02-04T10:55:39;7.71;79.28
85097;SHT30;75436;53.502;10.030;2024-02-04T10:58:06;7.90;79.30
85097;SHT30;75436;53.502;10.030;2024-02-04T11:00:32;7.84;79.39
85097;SHT30;75436;53.502;10.030;2024-02-04T11:02:59;7.78;79.34
85097;SHT30;75436;53.502;10.030;2024-02-04T11:05:26;7.87;78.29
85097;SHT30;75436;53.502;10.030;2024-02-04T11:07:52;7.87;78.97
85097;SHT30;75436;53.502;10.030;2024-02-04T11:10:18;7.94;78.91
85097;SHT30;75436;53.502;10.030;2024-02-04T11:12:46;7.87;78.79
85097;SHT30;75436;53.502;10.030;2024-02-04T11:15:16;7.91;78.50
85097;SHT30;75436;53.502;10.030;2024-02-04T11:24:13;8.01;78.34
85097;SHT30;75436;53.502;10.030;2024-02-04T11:26:43;8.12;78.05
85097;SHT30;75436;53.502;10.030;2024-02-04T11:29:10;8.06;78.34
85097;SHT30;75436;53.502;10.030;2024-02-04T11:31:39;8.04;78.57
85097;SHT30;75436;53.502;10.030;2024-02-04T11:34:08;8.09;78.57
85097;SHT30;75436;53.502;10.030;2024-02-04T11:36:42;8.12;78.17
85097;SHT30;75436;53.502;10.030;2024-02-04T11:39:17;8.33;77.27
85097;SHT30;75436;53.502;10.030;2024-02-04T11:41:47;8.12;77.95
85097;SHT30;75436;53.502;10.030;2024-02-04T11:44:26;8.20;77.43
85097;SHT30;75436;53.502;10.030;2024-02-04T11:46:54;8.26;77.57
85097;SHT30;75436;53.502;10.030;2024-02-04T11:49:25;8.26;77.70
85097;SHT30;75436;53.502;10.030;2024-02-04T11:51:51;8.52;76.47
85097;SHT30;75436;53.502;10.030;2024-02-04T11:54:19;8.49;76.79
85097;SHT30;75436;53.502;10.030;2024-02-04T11:56:48;8.32;77.52
85097;SHT30;75436;53.502;10.030;2024-02-04T11:59:19;8.36;77.23
85097;SHT30;75436;53.502;10.030;2024-02-04T12:01:47;8.33;77.71
85097;SHT30;75436;53.502;10.030;2024-02-04T12:04:14;8.42;77.35
85097;SHT30;75436;53.502;10.030;2024-02-04T12:06:41;8.64;77.01
85097;SHT30;75436;53.502;10.030;2024-02-04T12:09:08;8.50;77.05
85097;SHT30;75436;53.502;10.030;2024-02-04T12:11:36;8.52;76.83
85097;SHT30;75436;53.502;10.030;2024-02-04T12:14:04;8.36;77.38
85097;SHT30;75436;53.502;10.030;2024-02-04T12:16:33;8.38;77.46
85097;SHT30;75436;53.502;10.030;2024-02-04T12:19:01;8.50;77.20
85097;SHT30;75436;53.502;10.030;2024-02-04T12:21:26;8.53;77.11
85097;SHT30;75436;53.502;10.030;2024-02-04T12:23:52;8.50;76.94
85097;SHT30;75436;53.502;10.030;2024-02-04T12:26:18;8.66;77.00
85097;SHT30;75436;53.502;10.030;2024-02-04T12:28:43;8.55;76.71
85097;SHT30;75436;53.502;10.030;2024-02-04T12:31:24;8.60;76.22
85097;SHT30;75436;53.502;10.030;2024-02-04T12:33:55;8.73;75.46
85097;SHT30;75436;53.502;10.030;2024-02-04T12:36:41;8.72;75.66
85097;SHT30;75436;53.502;10.030;2024-02-04T12:39:10;8.76;75.63
85097;SHT30;75436;53.502;10.030;2024-02-04T12:41:37;8.64;75.43
85097;SHT30;75436;53.502;10.030;2024-02-04T12:44:02;8.60;75.82
85097;SHT30;75436;53.502;10.030;2024-02-04T12:46:30;8.62;75.94
85097;SHT30;75436;53.502;10.030;2024-02-04T12:48:58;8.80;74.95
85097;SHT30;75436;53.502;10.030;2024-02-04T12:51:29;8.80;74.90
85097;SHT30;75436;53.502;10.030;2024-02-04T12:54:09;8.81;75.35
85097;SHT30;75436;53.502;10.030;2024-02-04T12:56:49;8.73;75.58
85097;SHT30;75436;53.502;10.030;2024-02-04T12:59:32;8.73;75.44
85097;SHT30;75436;53.502;10.030;2024-02-04T13:02:04;8.73;75.59
85097;SHT30;75436;53.502;10.030;2024-02-04T13:04:42;8.79;75.85
85097;SHT30;75436;53.502;10.030;2024-02-04T13:07:13;8.64;75.78
85097;SHT30;75436;53.502;10.030;2024-02-04T13:09:40;8.73;75.76
85097;SHT30;75436;53.502;10.030;2024-02-04T13:12:07;8.74;75.93
85097;SHT30;75436;53.502;10.030;2024-02-04T13:14:34;8.77;75.78
85097;SHT30;75436;53.502;10.030;2024-02-04T13:17:00;8.57;76.72
85097;SHT30;75436;53.502;10.030;2024-02-04T13:19:35;8.67;76.44
85097;SHT30;75436;53.502;10.030;2024-02-04T13:22:08;8.81;76.28
85097;SHT30;75436;53.502;10.030;2024-02-04T13:24:40;8.81;76.05
85097;SHT30;75436;53.502;10.030;2024-02-04T13:27:05;8.57;76.74
85097;SHT30;75436;53.502;10.030;2024-02-04T13:29:37;8.85;76.06
85097;SHT30;75436;53.502;10.030;2024-02-04T13:32:02;8.84;75.52
85097;SHT30;75436;53.502;10.030;2024-02-04T13:34:28;8.74;76.13
85097;SHT30;75436;53.502;10.030;2024-02-04T13:36:54;8.74;76.30
85097;SHT30;75436;53.502;10.030;2024-02-04T13:39:19;8.80;76.13
85097;SHT30;75436;53.502;10.030;2024-02-04T13:41:45;8.87;76.18
85097;SHT30;75436;53.502;10.030;2024-02-04T13:44:10;8.83;76.08
85097;SHT30;75436;53.502;10.030;2024-02-04T13:46:36;8.77;76.24
85097;SHT30;75436;53.502;10.030;2024-02-04T13:49:02;8.90;76.05
85097;SHT30;75436;53.502;10.030;2024-02-04T13:51:28;8.80;75.86
85097;SHT30;75436;53.502;10.030;2024-02-04T13:53:53;8.62;77.09
85097;SHT30;75436;53.502;10.030;2024-02-04T13:56:20;8.73;76.26
85097;SHT30;75436;53.502;10.030;2024-02-04T13:58:45;8.59;76.51
85097;SHT30;75436;53.502;10.030;2024-02-04T14:01:11;8.88;75.78
85097;SHT30;75436;53.502;10.030;2024-02-04T14:03:38;8.64;77.05
85097;SHT30;75436;53.502;10.030;2024-02-04T14:06:04;8.76;76.52
85097;SHT30;75436;53.502;10.030;2024-02-04T14:08:30;8.59;76.96
85097;SHT30;75436;53.502;10.030;2024-02-04T14:10:55;8.73;76.46
85097;SHT30;75436;53.502;10.030;2024-02-04T14:13:21;8.87;75.90
85097;SHT30;75436;53.502;10.030;2024-02-04T14:15:46;8.70;76.30
85097;SHT30;75436;53.502;10.030;2024-02-04T14:18:13;8.70;76.37
85097;SHT30;75436;53.502;10.030;2024-02-04T14:20:39;8.55;77.29
85097;SHT30;75436;53.502;10.030;2024-02-04T14:23:05;8.55;76.99
85097;SHT30;75436;53.502;10.030;2024-02-04T14:25:31;8.56;76.95
85097;SHT30;75436;53.502;10.030;2024-02-04T14:27:57;8.48;77.41
85097;SHT30;75436;53.502;10.030;2024-02-04T14:30:22;8.48;77.49
85097;SHT30;75436;53.502;10.030;2024-02-04T14:32:49;8.57;77.26
85097;SHT30;75436;53.502;10.030;2024-02-04T14:35:14;8.60;76.89
85097;SHT30;75436;53.502;10.030;2024-02-04T14:37:40;8.63;77.05
85097;SHT30;75436;53.502;10.030;2024-02-04T14:40:07;8.50;77.42
85097;SHT30;75436;53.502;10.030;2024-02-04T14:42:33;8.41;77.83
85097;SHT30;75436;53.502;10.030;2024-02-04T14:44:59;8.62;77.15
85097;SHT30;75436;53.502;10.030;2024-02-04T14:47:28;8.50;77.39
85097;SHT30;75436;53.502;10.030;2024-02-04T14:49:54;8.63;76.98
85097;SHT30;75436;53.502;10.030;2024-02-04T14:52:19;8.43;77.97
85097;SHT30;75436;53.502;10.030;2024-02-04T14:54:45;8.59;77.27
85097;SHT30;75436;53.502;10.030;2024-02-04T14:57:10;8.62;77.80
85097;SHT30;75436;53.502;10.030;2024-02-04T14:59:36;8.48;78.31
85097;SHT30;75436;53.502;10.030;2024-02-04T15:02:11;8.63;77.98
85097;SHT30;75436;53.502;10.030;2024-02-04T15:04:38;8.41;78.73
85097;SHT30;75436;53.502;10.030;2024-02-04T15:07:04;8.29;79.99
85097;SHT30;75436;53.502;10.030;2024-02-04T15:09:33;8.28;80.29
85097;SHT30;75436;53.502;10.030;2024-02-04T15:12:00;8.24;80.97
85097;SHT30;75436;53.502;10.030;2024-02-04T15:14:26;8.18;81.50
85097;SHT30;75436;53.502;10.030;2024-02-04T15:16:52;8.18;81.41
85097;SHT30;75436;53.502;10.030;2024-02-04T15:19:20;8.11;81.53
85097;SHT30;75436;53.502;10.030;2024-02-04T15:21:45;8.02;81.78
85097;SHT30;75436;53.502;10.030;2024-02-04T15:24:12;8.16;81.87
85097;SHT30;75436;53.502;10.030;2024-02-04T15:26:37;7.99;82.67
85097;SHT30;75436;53.502;10.030;2024-02-04T15:29:04;7.98;82.36
85097;SHT30;75436;53.502;10.030;2024-02-04T15:31:31;7.98;82.94
85097;SHT30;75436;53.502;10.030;2024-02-04T15:33:58;8.12;83.22